sensor_id;sensor_type;location;lat;lon;timestamp;P1;durP1;ratioP1;P2;durP2;ratioP2
1214;SDS011;597;51.998;5.880;2022-10-31T00:00:48;31.10;;;22.40;;
1214;SDS011;597;51.998;5.880;2022-10-31T00:03:14;28.40;;;22.97;;
1214;SDS011;597;51.998;5.880;2022-10-31T00:05:46;36.50;;;23.00;;
1214;SDS011;597;51.998;5.880;2022-10-31T00:08:11;42.07;;;22.67;;
1214;SDS011;597;51.998;5.880;2022-10-31T00:10:37;31.37;;;22.90;;
1214;SDS011;597;51.998;5.880;2022-10-31T00:13:02;37.37;;;22.43;;
1214;SDS011;597;51.998;5.880;2022-10-31T00:15:27;35.77;;;22.80;;
1214;SDS011;597;51.998;5.880;2022-10-31T00:17:53;40.43;;;23.30;;
1214;SDS011;597;51.998;5.880;2022-10-31T00:20:18;33.90;;;22.73;;
1214;SDS011;597;51.998;5.880;2022-10-31T00:22:43;36.40;;;21.80;;
1214;SDS011;597;51.998;5.880;2022-10-31T00:25:08;31.37;;;21.47;;
1214;SDS011;597;51.998;5.880;2022-10-31T00:27:33;38.97;;;22.70;;
1214;SDS011;597;51.998;5.880;2022-10-31T00:29:58;34.43;;;20.80;;
1214;SDS011;597;51.998;5.880;2022-10-31T00:32:24;35.23;;;19.60;;
1214;SDS011;597;51.998;5.880;2022-10-31T00:34:49;38.67;;;22.43;;
1214;SDS011;597;51.998;5.880;2022-10-31T00:37:14;31.47;;;20.20;;
1214;SDS011;597;51.998;5.880;2022-10-31T00:39:39;32.37;;;19.77;;
1214;SDS011;597;51.998;5.880;2022-10-31T00:42:04;26.63;;;19.80;;
1214;SDS011;597;51.998;5.880;2022-10-31T00:44:30;30.70;;;18.97;;
1214;SDS011;597;51.998;5.880;2022-10-31T00:46:55;30.20;;;18.43;;
1214;SDS011;597;51.998;5.880;2022-10-31T00:49:20;25.23;;;18.70;;
1214;SDS011;597;51.998;5.880;2022-10-31T00:51:45;29.03;;;19.37;;
1214;SDS011;597;51.998;5.880;2022-10-31T00:54:10;30.87;;;19.47;;
1214;SDS011;597;51.998;5.880;2022-10-31T00:56:35;30.77;;;17.97;;
1214;SDS011;597;51.998;5.880;2022-10-31T00:59:01;30.10;;;19.70;;
1214;SDS011;597;51.998;5.880;2022-10-31T01:01:26;28.07;;;20.93;;
1214;SDS011;597;51.998;5.880;2022-10-31T01:03:51;31.63;;;19.80;;
1214;SDS011;597;51.998;5.880;2022-10-31T01:06:16;34.80;;;21.47;;
1214;SDS011;597;51.998;5.880;2022-10-31T01:08:42;29.93;;;19.47;;
1214;SDS011;597;51.998;5.880;2022-10-31T01:13:33;33.17;;;21.30;;
1214;SDS011;597;51.998;5.880;2022-10-31T01:15:59;35.20;;;21.77;;
1214;SDS011;597;51.998;5.880;2022-10-31T01:18:25;33.80;;;22.97;;
1214;SDS011;597;51.998;5.880;2022-10-31T01:20:57;30.30;;;21.07;;
1214;SDS011;597;51.998;5.880;2022-10-31T01:23:22;30.77;;;19.73;;
1214;SDS011;597;51.998;5.880;2022-10-31T01:25:47;31.53;;;21.70;;
1214;SDS011;597;51.998;5.880;2022-10-31T01:28:13;36.63;;;21.90;;
1214;SDS011;597;51.998;5.880;2022-10-31T01:30:38;22.63;;;18.10;;
1214;SDS011;597;51.998;5.880;2022-10-31T01:33:03;38.20;;;17.53;;
1214;SDS011;597;51.998;5.880;2022-10-31T01:35:28;28.73;;;17.07;;
1214;SDS011;597;51.998;5.880;2022-10-31T01:37:53;31.70;;;18.77;;
1214;SDS011;597;51.998;5.880;2022-10-31T01:40:19;26.40;;;17.60;;
1214;SDS011;597;51.998;5.880;2022-10-31T01:42:44;20.43;;;15.10;;
1214;SDS011;597;51.998;5.880;2022-10-31T01:45:09;24.50;;;16.37;;
1214;SDS011;597;51.998;5.880;2022-10-31T01:47:38;21.43;;;13.90;;
1214;SDS011;597;51.998;5.880;2022-10-31T01:50:08;22.07;;;16.23;;
1214;SDS011;597;51.998;5.880;2022-10-31T01:52:41;27.37;;;17.03;;
1214;SDS011;597;51.998;5.880;2022-10-31T01:57:40;26.57;;;17.70;;
1214;SDS011;597;51.998;5.880;2022-10-31T02:00:07;24.50;;;16.57;;
1214;SDS011;597;51.998;5.880;2022-10-31T02:02:33;28.57;;;18.23;;
1214;SDS011;597;51.998;5.880;2022-10-31T02:04:59;26.00;;;17.37;;
1214;SDS011;597;51.998;5.880;2022-10-31T02:07:26;21.47;;;17.17;;
1214;SDS011;597;51.998;5.880;2022-10-31T02:09:51;26.17;;;17.80;;
1214;SDS011;597;51.998;5.880;2022-10-31T02:12:18;21.33;;;17.17;;
1214;SDS011;597;51.998;5.880;2022-10-31T02:14:43;23.93;;;17.83;;
1214;SDS011;597;51.998;5.880;2022-10-31T02:17:08;22.50;;;18.03;;
1214;SDS011;597;51.998;5.880;2022-10-31T02:22:04;24.70;;;19.33;;
1214;SDS011;597;51.998;5.880;2022-10-31T02:27:02;27.43;;;18.67;;
1214;SDS011;597;51.998;5.880;2022-10-31T02:29:43;25.10;;;18.63;;
1214;SDS011;597;51.998;5.880;2022-10-31T02:35:03;35.30;;;21.07;;
1214;SDS011;597;51.998;5.880;2022-10-31T02:37:51;30.27;;;20.17;;
1214;SDS011;597;51.998;5.880;2022-10-31T02:40:23;31.70;;;22.90;;
1214;SDS011;597;51.998;5.880;2022-10-31T02:45:28;32.53;;;22.27;;
1214;SDS011;597;51.998;5.880;2022-10-31T02:47:55;34.57;;;22.50;;
1214;SDS011;597;51.998;5.880;2022-10-31T02:50:23;33.37;;;24.37;;
1214;SDS011;597;51.998;5.880;2022-10-31T02:52:51;37.13;;;23.43;;
1214;SDS011;597;51.998;5.880;2022-10-31T02:57:51;37.90;;;25.30;;
1214;SDS011;597;51.998;5.880;2022-10-31T03:00:18;38.87;;;25.47;;
1214;SDS011;597;51.998;5.880;2022-10-31T03:07:55;43.23;;;25.97;;
1214;SDS011;597;51.998;5.880;2022-10-31T03:15:19;54.50;;;30.27;;
1214;SDS011;597;51.998;5.880;2022-10-31T03:17:50;38.57;;;26.70;;
1214;SDS011;597;51.998;5.880;2022-10-31T03:20:16;46.47;;;31.07;;
1214;SDS011;597;51.998;5.880;2022-10-31T03:22:45;41.47;;;29.30;;
1214;SDS011;597;51.998;5.880;2022-10-31T03:25:10;50.80;;;29.47;;
1214;SDS011;597;51.998;5.880;2022-10-31T03:27:37;41.90;;;27.60;;
1214;SDS011;597;51.998;5.880;2022-10-31T03:30:04;54.97;;;30.50;;
1214;SDS011;597;51.998;5.880;2022-10-31T03:32:35;48.47;;;28.80;;
1214;SDS011;597;51.998;5.880;2022-10-31T03:35:01;56.10;;;29.30;;
1214;SDS011;597;51.998;5.880;2022-10-31T03:37:29;53.50;;;29.53;;
1214;SDS011;597;51.998;5.880;2022-10-31T03:39:56;50.27;;;29.53;;
1214;SDS011;597;51.998;5.880;2022-10-31T03:42:23;54.53;;;31.20;;
1214;SDS011;597;51.998;5.880;2022-10-31T03:44:51;57.10;;;30.13;;
1214;SDS011;597;51.998;5.880;2022-10-31T03:47:18;57.33;;;29.37;;
1214;SDS011;597;51.998;5.880;2022-10-31T03:49:43;52.90;;;31.10;;
1214;SDS011;597;51.998;5.880;2022-10-31T03:52:13;68.67;;;32.93;;
1214;SDS011;597;51.998;5.880;2022-10-31T03:54:42;52.77;;;32.37;;
1214;SDS011;597;51.998;5.880;2022-10-31T03:59:42;54.43;;;32.67;;
1214;SDS011;597;51.998;5.880;2022-10-31T04:02:13;52.33;;;33.67;;
1214;SDS011;597;51.998;5.880;2022-10-31T04:04:39;60.67;;;35.50;;
1214;SDS011;597;51.998;5.880;2022-10-31T04:07:05;64.80;;;33.63;;
1214;SDS011;597;51.998;5.880;2022-10-31T04:09:32;62.87;;;34.90;;
1214;SDS011;597;51.998;5.880;2022-10-31T04:11:58;65.30;;;35.23;;
1214;SDS011;597;51.998;5.880;2022-10-31T04:14:25;66.30;;;34.03;;
1214;SDS011;597;51.998;5.880;2022-10-31T04:16:51;66.30;;;35.13;;
1214;SDS011;597;51.998;5.880;2022-10-31T04:19:16;65.10;;;35.40;;
1214;SDS011;597;51.998;5.880;2022-10-31T04:21:41;61.60;;;33.43;;
1214;SDS011;597;51.998;5.880;2022-10-31T04:24:10;67.63;;;35.20;;
1214;SDS011;597;51.998;5.880;2022-10-31T04:26:36;59.37;;;34.33;;
1214;SDS011;597;51.998;5.880;2022-10-31T04:29:01;56.23;;;34.57;;
1214;SDS011;597;51.998;5.880;2022-10-31T04:31:26;63.93;;;37.17;;
1214;SDS011;597;51.998;5.880;2022-10-31T04:33:52;58.73;;;35.53;;
1214;SDS011;597;51.998;5.880;2022-10-31T04:36:17;65.90;;;36.43;;
1214;SDS011;597;51.998;5.880;2022-10-31T04:38:42;67.17;;;35.57;;
1214;SDS011;597;51.998;5.880;2022-10-31T04:41:07;74.80;;;34.47;;
1214;SDS011;597;51.998;5.880;2022-10-31T04:43:32;59.30;;;37.37;;
1214;SDS011;597;51.998;5.880;2022-10-31T04:45:58;73.93;;;36.67;;
1214;SDS011;597;51.998;5.880;2022-10-31T04:48:23;68.17;;;36.80;;
1214;SDS011;597;51.998;5.880;2022-10-31T04:50:48;74.20;;;38.30;;
1214;SDS011;597;51.998;5.880;2022-10-31T04:53:13;70.70;;;38.90;;
1214;SDS011;597;51.998;5.880;2022-10-31T04:55:38;79.67;;;39.97;;
1214;SDS011;597;51.998;5.880;2022-10-31T04:58:04;80.97;;;41.27;;
1214;SDS011;597;51.998;5.880;2022-10-31T05:00:29;99.47;;;46.23;;
1214;SDS011;597;51.998;5.880;2022-10-31T05:02:55;79.00;;;40.90;;
1214;SDS011;597;51.998;5.880;2022-10-31T05:05:22;88.07;;;41.10;;
1214;SDS011;597;51.998;5.880;2022-10-31T05:07:47;91.47;;;43.97;;
1214;SDS011;597;51.998;5.880;2022-10-31T05:10:14;92.80;;;44.93;;
1214;SDS011;597;51.998;5.880;2022-10-31T05:12:47;86.17;;;43.17;;
1214;SDS011;597;51.998;5.880;2022-10-31T05:15:12;97.70;;;43.90;;
1214;SDS011;597;51.998;5.880;2022-10-31T05:17:38;100.60;;;45.40;;
1214;SDS011;597;51.998;5.880;2022-10-31T05:20:03;83.33;;;43.03;;
1214;SDS011;597;51.998;5.880;2022-10-31T05:22:28;84.37;;;44.67;;
1214;SDS011;597;51.998;5.880;2022-10-31T05:24:53;92.73;;;46.20;;
1214;SDS011;597;51.998;5.880;2022-10-31T05:27:19;93.93;;;45.03;;
1214;SDS011;597;51.998;5.880;2022-10-31T05:29:44;84.63;;;44.20;;
1214;SDS011;597;51.998;5.880;2022-10-31T05:32:09;86.30;;;43.13;;
1214;SDS011;597;51.998;5.880;2022-10-31T05:34:34;80.00;;;44.47;;
1214;SDS011;597;51.998;5.880;2022-10-31T05:36:59;85.67;;;45.87;;
1214;SDS011;597;51.998;5.880;2022-10-31T05:39:24;104.90;;;46.63;;
1214;SDS011;597;51.998;5.880;2022-10-31T05:41:50;99.50;;;50.40;;
1214;SDS011;597;51.998;5.880;2022-10-31T05:44:15;116.30;;;47.40;;
1214;SDS011;597;51.998;5.880;2022-10-31T05:46:40;101.20;;;47.60;;
1214;SDS011;597;51.998;5.880;2022-10-31T05:49:06;89.63;;;45.00;;
1214;SDS011;597;51.998;5.880;2022-10-31T05:51:31;94.40;;;46.60;;
1214;SDS011;597;51.998;5.880;2022-10-31T05:53:56;90.70;;;45.37;;
1214;SDS011;597;51.998;5.880;2022-10-31T05:56:21;80.37;;;45.47;;
1214;SDS011;597;51.998;5.880;2022-10-31T05:58:46;94.73;;;44.80;;
1214;SDS011;597;51.998;5.880;2022-10-31T06:01:11;95.50;;;44.23;;
1214;SDS011;597;51.998;5.880;2022-10-31T06:03:37;92.70;;;46.03;;
1214;SDS011;597;51.998;5.880;2022-10-31T06:06:02;86.83;;;46.37;;
1214;SDS011;597;51.998;5.880;2022-10-31T06:08:27;98.80;;;47.53;;
1214;SDS011;597;51.998;5.880;2022-10-31T06:10:52;91.10;;;47.00;;
1214;SDS011;597;51.998;5.880;2022-10-31T06:13:18;100.93;;;47.30;;
1214;SDS011;597;51.998;5.880;2022-10-31T06:15:44;105.27;;;48.73;;
1214;SDS011;597;51.998;5.880;2022-10-31T06:18:09;113.07;;;48.70;;
1214;SDS011;597;51.998;5.880;2022-10-31T06:20:34;101.23;;;46.87;;
1214;SDS011;597;51.998;5.880;2022-10-31T06:22:59;112.87;;;50.63;;
1214;SDS011;597;51.998;5.880;2022-10-31T06:25:25;101.27;;;49.90;;
1214;SDS011;597;51.998;5.880;2022-10-31T06:27:50;109.57;;;51.20;;
1214;SDS011;597;51.998;5.880;2022-10-31T06:30:15;108.40;;;52.77;;
1214;SDS011;597;51.998;5.880;2022-10-31T06:32:40;102.83;;;49.00;;
1214;SDS011;597;51.998;5.880;2022-10-31T06:35:06;104.20;;;50.57;;
1214;SDS011;597;51.998;5.880;2022-10-31T06:37:31;98.87;;;49.20;;
1214;SDS011;597;51.998;5.880;2022-10-31T06:39:56;109.57;;;50.27;;
1214;SDS011;597;51.998;5.880;2022-10-31T06:42:21;126.33;;;53.77;;
1214;SDS011;597;51.998;5.880;2022-10-31T06:44:46;96.47;;;48.63;;
1214;SDS011;597;51.998;5.880;2022-10-31T06:47:11;102.43;;;48.30;;
1214;SDS011;597;51.998;5.880;2022-10-31T06:49:37;100.63;;;52.03;;
1214;SDS011;597;51.998;5.880;2022-10-31T06:52:02;114.53;;;49.77;;
1214;SDS011;597;51.998;5.880;2022-10-31T06:54:27;99.57;;;48.40;;
1214;SDS011;597;51.998;5.880;2022-10-31T06:56:53;98.07;;;48.80;;
1214;SDS011;597;51.998;5.880;2022-10-31T06:59:18;120.20;;;49.70;;
1214;SDS011;597;51.998;5.880;2022-10-31T07:01:43;97.93;;;49.50;;
1214;SDS011;597;51.998;5.880;2022-10-31T07:04:11;99.10;;;51.87;;
1214;SDS011;597;51.998;5.880;2022-10-31T07:06:37;104.13;;;49.40;;
1214;SDS011;597;51.998;5.880;2022-10-31T07:09:02;105.33;;;49.80;;
1214;SDS011;597;51.998;5.880;2022-10-31T07:11:27;99.97;;;49.10;;
1214;SDS011;597;51.998;5.880;2022-10-31T07:13:53;101.20;;;48.17;;
1214;SDS011;597;51.998;5.880;2022-10-31T07:16:18;100.97;;;46.13;;
1214;SDS011;597;51.998;5.880;2022-10-31T07:18:43;86.53;;;47.70;;
1214;SDS011;597;51.998;5.880;2022-10-31T07:21:08;101.00;;;46.87;;
1214;SDS011;597;51.998;5.880;2022-10-31T07:23:33;92.33;;;47.73;;
1214;SDS011;597;51.998;5.880;2022-10-31T07:25:59;100.60;;;44.17;;
1214;SDS011;597;51.998;5.880;2022-10-31T07:28:24;97.03;;;44.07;;
1214;SDS011;597;51.998;5.880;2022-10-31T07:30:50;94.73;;;46.53;;
1214;SDS011;597;51.998;5.880;2022-10-31T07:33:16;93.03;;;45.40;;
1214;SDS011;597;51.998;5.880;2022-10-31T07:35:41;97.73;;;45.43;;
1214;SDS011;597;51.998;5.880;2022-10-31T07:38:07;88.50;;;43.73;;
1214;SDS011;597;51.998;5.880;2022-10-31T07:40:32;86.40;;;44.73;;
1214;SDS011;597;51.998;5.880;2022-10-31T07:42:58;91.27;;;43.43;;
1214;SDS011;597;51.998;5.880;2022-10-31T07:45:23;89.50;;;45.30;;
1214;SDS011;597;51.998;5.880;2022-10-31T07:47:49;80.83;;;43.90;;
1214;SDS011;597;51.998;5.880;2022-10-31T07:50:16;87.10;;;45.07;;
1214;SDS011;597;51.998;5.880;2022-10-31T07:52:41;92.50;;;44.40;;
1214;SDS011;597;51.998;5.880;2022-10-31T07:55:06;75.90;;;42.97;;
1214;SDS011;597;51.998;5.880;2022-10-31T07:57:31;78.23;;;42.97;;
1214;SDS011;597;51.998;5.880;2022-10-31T07:59:57;75.20;;;40.77;;
1214;SDS011;597;51.998;5.880;2022-10-31T08:02:22;78.23;;;40.33;;
1214;SDS011;597;51.998;5.880;2022-10-31T08:04:47;69.27;;;41.27;;
1214;SDS011;597;51.998;5.880;2022-10-31T08:07:13;72.10;;;41.90;;
1214;SDS011;597;51.998;5.880;2022-10-31T08:09:38;70.07;;;36.13;;
1214;SDS011;597;51.998;5.880;2022-10-31T08:12:03;59.47;;;35.83;;
1214;SDS011;597;51.998;5.880;2022-10-31T08:14:28;57.37;;;34.83;;
1214;SDS011;597;51.998;5.880;2022-10-31T08:16:54;58.30;;;35.00;;
1214;SDS011;597;51.998;5.880;2022-10-31T08:19:19;46.37;;;31.73;;
1214;SDS011;597;51.998;5.880;2022-10-31T08:21:44;41.60;;;28.40;;
1214;SDS011;597;51.998;5.880;2022-10-31T08:24:10;32.63;;;23.53;;
1214;SDS011;597;51.998;5.880;2022-10-31T08:26:35;29.30;;;20.90;;
1214;SDS011;597;51.998;5.880;2022-10-31T08:29:00;27.30;;;20.10;;
1214;SDS011;597;51.998;5.880;2022-10-31T08:31:26;24.63;;;19.33;;
1214;SDS011;597;51.998;5.880;2022-10-31T08:33:52;27.00;;;19.70;;
1214;SDS011;597;51.998;5.880;2022-10-31T08:36:18;30.00;;;23.23;;
1214;SDS011;597;51.998;5.880;2022-10-31T08:38:43;31.73;;;22.60;;
1214;SDS011;597;51.998;5.880;2022-10-31T08:41:08;34.70;;;24.63;;
1214;SDS011;597;51.998;5.880;2022-10-31T08:43:33;38.13;;;27.13;;
1214;SDS011;597;51.998;5.880;2022-10-31T08:45:58;45.80;;;28.87;;
1214;SDS011;597;51.998;5.880;2022-10-31T08:48:23;36.00;;;27.40;;
1214;SDS011;597;51.998;5.880;2022-10-31T08:50:49;36.77;;;26.47;;
1214;SDS011;597;51.998;5.880;2022-10-31T08:53:18;34.67;;;27.50;;
1214;SDS011;597;51.998;5.880;2022-10-31T08:55:44;33.17;;;24.77;;
1214;SDS011;597;51.998;5.880;2022-10-31T08:58:10;28.47;;;23.87;;
1214;SDS011;597;51.998;5.880;2022-10-31T09:00:35;32.33;;;22.93;;
1214;SDS011;597;51.998;5.880;2022-10-31T09:03:02;27.93;;;22.10;;
1214;SDS011;597;51.998;5.880;2022-10-31T09:05:28;33.17;;;21.90;;
1214;SDS011;597;51.998;5.880;2022-10-31T09:07:57;32.07;;;21.27;;
1214;SDS011;597;51.998;5.880;2022-10-31T09:10:22;28.10;;;21.00;;
1214;SDS011;597;51.998;5.880;2022-10-31T09:12:47;29.60;;;22.00;;
1214;SDS011;597;51.998;5.880;2022-10-31T09:15:19;30.27;;;21.73;;
1214;SDS011;597;51.998;5.880;2022-10-31T09:17:47;22.97;;;18.40;;
1214;SDS011;597;51.998;5.880;2022-10-31T09:20:12;26.33;;;20.10;;
1214;SDS011;597;51.998;5.880;2022-10-31T09:22:38;23.87;;;19.20;;
1214;SDS011;597;51.998;5.880;2022-10-31T09:25:03;30.37;;;20.00;;
1214;SDS011;597;51.998;5.880;2022-10-31T09:27:28;19.27;;;17.17;;
1214;SDS011;597;51.998;5.880;2022-10-31T09:29:53;22.17;;;18.63;;
1214;SDS011;597;51.998;5.880;2022-10-31T09:32:19;21.80;;;17.53;;
1214;SDS011;597;51.998;5.880;2022-10-31T09:34:44;19.60;;;16.60;;
1214;SDS011;597;51.998;5.880;2022-10-31T09:37:09;37.00;;;20.47;;
1214;SDS011;597;51.998;5.880;2022-10-31T09:39:34;23.57;;;17.80;;
1214;SDS011;597;51.998;5.880;2022-10-31T09:42:15;31.33;;;19.07;;
1214;SDS011;597;51.998;5.880;2022-10-31T09:49:58;24.83;;;19.40;;
1214;SDS011;597;51.998;5.880;2022-10-31T09:52:26;29.17;;;20.67;;
1214;SDS011;597;51.998;5.880;2022-10-31T09:55:00;28.70;;;19.20;;
1214;SDS011;597;51.998;5.880;2022-10-31T09:57:33;25.10;;;20.40;;
1214;SDS011;597;51.998;5.880;2022-10-31T09:59:59;33.00;;;21.80;;
1214;SDS011;597;51.998;5.880;2022-10-31T10:02:30;28.83;;;22.90;;
1214;SDS011;597;51.998;5.880;2022-10-31T10:05:09;33.77;;;21.90;;
1214;SDS011;597;51.998;5.880;2022-10-31T10:07:48;39.17;;;23.30;;
1214;SDS011;597;51.998;5.880;2022-10-31T10:10:20;35.17;;;24.80;;
1214;SDS011;597;51.998;5.880;2022-10-31T10:16:21;40.90;;;26.03;;
1214;SDS011;597;51.998;5.880;2022-10-31T10:20:42;34.27;;;24.23;;
1214;SDS011;597;51.998;5.880;2022-10-31T10:23:17;34.97;;;23.97;;
1214;SDS011;597;51.998;5.880;2022-10-31T10:25:44;38.53;;;25.27;;
1214;SDS011;597;51.998;5.880;2022-10-31T10:33:27;38.17;;;25.80;;
1214;SDS011;597;51.998;5.880;2022-10-31T10:35:55;45.87;;;26.90;;
1214;SDS011;597;51.998;5.880;2022-10-31T10:41:10;41.83;;;26.77;;
1214;SDS011;597;51.998;5.880;2022-10-31T10:43:38;45.77;;;26.43;;
1214;SDS011;597;51.998;5.880;2022-10-31T10:48:58;41.80;;;27.13;;
1214;SDS011;597;51.998;5.880;2022-10-31T10:51:27;42.83;;;27.60;;
1214;SDS011;597;51.998;5.880;2022-10-31T10:58:54;36.47;;;26.00;;
1214;SDS011;597;51.998;5.880;2022-10-31T11:01:21;35.03;;;26.17;;
1214;SDS011;597;51.998;5.880;2022-10-31T11:03:46;31.87;;;22.80;;
1214;SDS011;597;51.998;5.880;2022-10-31T11:06:44;36.33;;;23.87;;
1214;SDS011;597;51.998;5.880;2022-10-31T11:09:09;41.47;;;23.03;;
1214;SDS011;597;51.998;5.880;2022-10-31T11:11:35;34.20;;;22.40;;
1214;SDS011;597;51.998;5.880;2022-10-31T11:14:04;32.07;;;25.30;;
1214;SDS011;597;51.998;5.880;2022-10-31T11:16:35;32.03;;;23.80;;
1214;SDS011;597;51.998;5.880;2022-10-31T11:19:34;35.80;;;24.20;;
1214;SDS011;597;51.998;5.880;2022-10-31T11:21:53;38.27;;;25.07;;
1214;SDS011;597;51.998;5.880;2022-10-31T11:24:19;40.37;;;25.60;;
1214;SDS011;597;51.998;5.880;2022-10-31T11:26:46;38.90;;;24.20;;
1214;SDS011;597;51.998;5.880;2022-10-31T11:29:21;40.47;;;26.50;;
1214;SDS011;597;51.998;5.880;2022-10-31T11:31:46;43.57;;;24.27;;
1214;SDS011;597;51.998;5.880;2022-10-31T11:34:27;43.83;;;25.90;;
1214;SDS011;597;51.998;5.880;2022-10-31T11:36:52;41.70;;;26.13;;
1214;SDS011;597;51.998;5.880;2022-10-31T11:39:19;35.07;;;25.80;;
1214;SDS011;597;51.998;5.880;2022-10-31T11:41:45;40.67;;;27.00;;
1214;SDS011;597;51.998;5.880;2022-10-31T11:46:43;37.73;;;25.63;;
1214;SDS011;597;51.998;5.880;2022-10-31T11:49:14;39.77;;;24.40;;
1214;SDS011;597;51.998;5.880;2022-10-31T11:51:40;34.43;;;25.57;;
1214;SDS011;597;51.998;5.880;2022-10-31T11:54:06;44.60;;;27.37;;
1214;SDS011;597;51.998;5.880;2022-10-31T11:56:41;41.27;;;26.00;;
1214;SDS011;597;51.998;5.880;2022-10-31T12:01:52;42.97;;;24.50;;
1214;SDS011;597;51.998;5.880;2022-10-31T12:04:18;40.10;;;25.90;;
1214;SDS011;597;51.998;5.880;2022-10-31T12:06:43;40.53;;;26.83;;
1214;SDS011;597;51.998;5.880;2022-10-31T12:09:16;39.10;;;27.40;;
1214;SDS011;597;51.998;5.880;2022-10-31T12:14:24;37.50;;;28.70;;
1214;SDS011;597;51.998;5.880;2022-10-31T12:16:56;45.93;;;27.83;;
1214;SDS011;597;51.998;5.880;2022-10-31T12:19:44;42.20;;;29.47;;
1214;SDS011;597;51.998;5.880;2022-10-31T12:24:47;37.93;;;27.60;;
1214;SDS011;597;51.998;5.880;2022-10-31T12:30:06;43.93;;;29.30;;
1214;SDS011;597;51.998;5.880;2022-10-31T12:32:38;38.13;;;27.10;;
1214;SDS011;597;51.998;5.880;2022-10-31T12:35:13;47.63;;;27.90;;
1214;SDS011;597;51.998;5.880;2022-10-31T12:48:01;46.73;;;30.40;;
1214;SDS011;597;51.998;5.880;2022-10-31T12:50:47;41.63;;;27.40;;
1214;SDS011;597;51.998;5.880;2022-10-31T12:58:46;42.70;;;28.37;;
1214;SDS011;597;51.998;5.880;2022-10-31T13:01:16;42.07;;;26.60;;
1214;SDS011;597;51.998;5.880;2022-10-31T13:03:58;41.53;;;28.27;;
1214;SDS011;597;51.998;5.880;2022-10-31T13:06:35;50.30;;;30.07;;
1214;SDS011;597;51.998;5.880;2022-10-31T13:09:02;40.60;;;28.70;;
1214;SDS011;597;51.998;5.880;2022-10-31T13:11:35;41.80;;;27.10;;
1214;SDS011;597;51.998;5.880;2022-10-31T13:14:13;38.97;;;28.00;;
1214;SDS011;597;51.998;5.880;2022-10-31T13:16:43;44.70;;;29.03;;
1214;SDS011;597;51.998;5.880;2022-10-31T13:24:23;41.70;;;27.80;;
1214;SDS011;597;51.998;5.880;2022-10-31T13:26:56;41.40;;;29.17;;
1214;SDS011;597;51.998;5.880;2022-10-31T13:31:47;37.78;;;26.23;;
1214;SDS011;597;51.998;5.880;2022-10-31T13:39:16;44.58;;;29.52;;
1214;SDS011;597;51.998;5.880;2022-10-31T13:41:46;40.50;;;28.50;;
1214;SDS011;597;51.998;5.880;2022-10-31T13:44:25;51.30;;;29.07;;
1214;SDS011;597;51.998;5.880;2022-10-31T13:46:52;46.30;;;27.90;;
1214;SDS011;597;51.998;5.880;2022-10-31T13:51:48;40.60;;;26.73;;
1214;SDS011;597;51.998;5.880;2022-10-31T13:54:21;43.17;;;26.27;;
1214;SDS011;597;51.998;5.880;2022-10-31T13:56:50;45.73;;;29.97;;
1214;SDS011;597;51.998;5.880;2022-10-31T13:59:17;38.80;;;26.57;;
1214;SDS011;597;51.998;5.880;2022-10-31T14:01:48;56.47;;;28.30;;
1214;SDS011;597;51.998;5.880;2022-10-31T14:04:21;47.50;;;27.63;;
1214;SDS011;597;51.998;5.880;2022-10-31T14:09:18;48.57;;;28.07;;
1214;SDS011;597;51.998;5.880;2022-10-31T14:11:45;45.13;;;27.27;;
1214;SDS011;597;51.998;5.880;2022-10-31T14:14:11;45.00;;;28.37;;
1214;SDS011;597;51.998;5.880;2022-10-31T14:16:36;46.73;;;27.30;;
1214;SDS011;597;51.998;5.880;2022-10-31T14:19:07;47.17;;;27.47;;
1214;SDS011;597;51.998;5.880;2022-10-31T14:21:43;41.90;;;26.23;;
1214;SDS011;597;51.998;5.880;2022-10-31T14:24:16;39.30;;;26.97;;
1214;SDS011;597;51.998;5.880;2022-10-31T14:26:58;47.43;;;24.53;;
1214;SDS011;597;51.998;5.880;2022-10-31T14:29:28;44.10;;;26.00;;
1214;SDS011;597;51.998;5.880;2022-10-31T14:31:54;43.70;;;27.30;;
1214;SDS011;597;51.998;5.880;2022-10-31T14:42:04;39.70;;;24.13;;
1214;SDS011;597;51.998;5.880;2022-10-31T14:44:41;43.10;;;26.20;;
1214;SDS011;597;51.998;5.880;2022-10-31T14:47:13;36.13;;;23.90;;
1214;SDS011;597;51.998;5.880;2022-10-31T14:52:07;41.50;;;25.67;;
1214;SDS011;597;51.998;5.880;2022-10-31T14:54:33;44.07;;;25.80;;
1214;SDS011;597;51.998;5.880;2022-10-31T14:57:22;48.47;;;27.10;;
1214;SDS011;597;51.998;5.880;2022-10-31T14:59:47;47.97;;;25.50;;
1214;SDS011;597;51.998;5.880;2022-10-31T15:02:15;46.50;;;26.47;;
1214;SDS011;597;51.998;5.880;2022-10-31T15:04:42;49.13;;;26.00;;
1214;SDS011;597;51.998;5.880;2022-10-31T15:09:37;45.30;;;25.73;;
1214;SDS011;597;51.998;5.880;2022-10-31T15:12:22;47.60;;;25.70;;
1214;SDS011;597;51.998;5.880;2022-10-31T15:14:48;41.30;;;25.37;;
1214;SDS011;597;51.998;5.880;2022-10-31T15:17:13;47.30;;;27.87;;
1214;SDS011;597;51.998;5.880;2022-10-31T15:19:38;42.07;;;26.20;;
1214;SDS011;597;51.998;5.880;2022-10-31T15:22:04;55.10;;;25.57;;
1214;SDS011;597;51.998;5.880;2022-10-31T15:24:38;50.90;;;27.67;;
1214;SDS011;597;51.998;5.880;2022-10-31T15:27:04;46.90;;;27.27;;
1214;SDS011;597;51.998;5.880;2022-10-31T15:29:29;49.20;;;26.40;;
1214;SDS011;597;51.998;5.880;2022-10-31T15:31:55;44.80;;;27.67;;
1214;SDS011;597;51.998;5.880;2022-10-31T15:34:22;49.10;;;28.57;;
1214;SDS011;597;51.998;5.880;2022-10-31T15:36:50;37.07;;;26.03;;
1214;SDS011;597;51.998;5.880;2022-10-31T15:39:16;50.93;;;28.53;;
1214;SDS011;597;51.998;5.880;2022-10-31T15:41:49;42.30;;;27.80;;
1214;SDS011;597;51.998;5.880;2022-10-31T15:44:16;52.63;;;28.90;;
1214;SDS011;597;51.998;5.880;2022-10-31T15:46:50;48.37;;;29.43;;
1214;SDS011;597;51.998;5.880;2022-10-31T15:49:26;47.07;;;29.40;;
1214;SDS011;597;51.998;5.880;2022-10-31T15:51:51;50.97;;;29.70;;
1214;SDS011;597;51.998;5.880;2022-10-31T15:54:17;54.30;;;29.70;;
1214;SDS011;597;51.998;5.880;2022-10-31T15:56:42;41.07;;;28.47;;
1214;SDS011;597;51.998;5.880;2022-10-31T15:59:11;52.50;;;30.97;;
1214;SDS011;597;51.998;5.880;2022-10-31T16:01:39;56.00;;;30.03;;
1214;SDS011;597;51.998;5.880;2022-10-31T16:06:29;47.40;;;27.50;;
1214;SDS011;597;51.998;5.880;2022-10-31T16:08:55;51.40;;;31.70;;
1214;SDS011;597;51.998;5.880;2022-10-31T16:13:52;48.30;;;29.27;;
1214;SDS011;597;51.998;5.880;2022-10-31T16:16:18;47.47;;;28.90;;
1214;SDS011;597;51.998;5.880;2022-10-31T16:18:45;56.70;;;30.27;;
1214;SDS011;597;51.998;5.880;2022-10-31T16:21:11;48.90;;;28.20;;
1214;SDS011;597;51.998;5.880;2022-10-31T16:23:36;49.60;;;28.00;;
1214;SDS011;597;51.998;5.880;2022-10-31T16:26:06;41.07;;;27.33;;
1214;SDS011;597;51.998;5.880;2022-10-31T16:28:32;49.73;;;30.20;;
1214;SDS011;597;51.998;5.880;2022-10-31T16:30:57;46.57;;;28.27;;
1214;SDS011;597;51.998;5.880;2022-10-31T16:33:35;60.37;;;29.07;;
1214;SDS011;597;51.998;5.880;2022-10-31T16:38:45;52.03;;;29.97;;
1214;SDS011;597;51.998;5.880;2022-10-31T16:41:10;47.60;;;28.53;;
1214;SDS011;597;51.998;5.880;2022-10-31T16:43:35;48.27;;;29.60;;
1214;SDS011;597;51.998;5.880;2022-10-31T16:46:00;54.60;;;29.40;;
1214;SDS011;597;51.998;5.880;2022-10-31T16:48:26;50.77;;;31.60;;
1214;SDS011;597;51.998;5.880;2022-10-31T16:50:51;56.07;;;28.87;;
1214;SDS011;597;51.998;5.880;2022-10-31T16:53:17;48.03;;;29.30;;
1214;SDS011;597;51.998;5.880;2022-10-31T16:58:10;71.23;;;29.80;;
1214;SDS011;597;51.998;5.880;2022-10-31T17:00:37;49.60;;;31.60;;
1214;SDS011;597;51.998;5.880;2022-10-31T17:03:02;52.80;;;32.50;;
1214;SDS011;597;51.998;5.880;2022-10-31T17:05:29;57.53;;;31.00;;
1214;SDS011;597;51.998;5.880;2022-10-31T17:07:55;56.63;;;31.70;;